Latest Coastal Weather Observations for Mardie

IDW60701

Issued at 11:13 am WST Saturday 5 December 2020 (issued every 10 minutes, with the page automatically refreshed every 10 minutes)

About coastal observations | Map of coastal stations | Coastal observations for WA | Marine services | Other Formats
Station Details ID: 005008 Name: MARDIE Lat: -21.19 Lon: 115.98 Height: 11.0 m
Data from the previous 72 hours. | See also: Recent months at Mardie
Date/Time
WST
Wind Sea
Height
m
Swell Vis
km
Cloud Weather Temp
°C
Press
MSL
hPa
Rain since
9am
mm
Dir  Spd
kts
Gust
kts
Height
m
Period
s
Dir
05/11:00am E 2 6 - - - - - - - 39.6 1006.9 0.0
05/10:30am SSE 5 10 - - - - - - - 38.6 1007.4 0.0
05/10:00am SSE 5 10 - - - - - - - 37.5 1008.0 0.0
05/09:30am SSE 5 8 - - - - - - - 36.4 1008.3 0.0
05/09:00am SSE 7 10 - - - - - - - 35.6 1008.5 0.0
05/08:30am W 2 3 - - - - - - - 33.4 1009.0 0.0
05/08:00am W 2 4 - - - - - - - 30.9 1009.0 0.0
05/07:30am CALM 0 0 - - - - - - - 30.3 1009.0 0.0
05/07:00am CALM 0 0 - - - - - - - 28.1 1008.8 0.0
05/06:30am CALM 0 0 - - - - - - - 27.6 1008.7 0.0
05/06:00am CALM 0 0 - - - - - - - 27.2 1008.7 0.0
05/05:30am W 3 4 - - - - - - - 26.9 1008.4 0.0
05/05:00am CALM 0 0 - - - - - - - 26.9 1008.2 0.0
05/04:30am CALM 0 0 - - - - - - - 27.1 1008.1 0.0
05/04:00am CALM 0 0 - - - - - - - 27.3 1008.2 0.0
05/03:30am CALM 0 0 - - - - - - - 27.1 1008.1 0.0
05/03:00am CALM 0 2 - - - - - - - 27.4 1008.0 0.0
05/02:30am W 1 3 - - - - - - - 27.7 1008.1 0.0
05/02:00am CALM 0 0 - - - - - - - 27.8 1008.3 0.0
05/01:30am CALM 0 0 - - - - - - - 28.1 1008.7 0.0
05/01:00am W 1 3 - - - - - - - 28.4 1008.8 0.0
05/12:30am W 1 2 - - - - - - - 28.7 1008.9 0.0
05/12:00am CALM 0 1 - - - - - - - 28.9 1009.1 0.0
 
Date/Time
WST
Wind Sea
Height
m
Swell Vis
km
Cloud Weather Temp
°C
Press
MSL
hPa
Rain since
9am
mm
Dir  Spd
kts
Gust
kts
Height
m
Period
s
Dir
04/11:30pm CALM 0 2 - - - - - - - 29.2 1009.3 0.0
04/11:00pm W 3 4 - - - - - - - 29.3 1009.6 0.0
04/10:30pm W 7 9 - - - - - - - 29.1 1009.8 0.0
04/10:00pm WNW 6 9 - - - - - - - 28.9 1009.7 0.0
04/09:30pm WNW 6 8 - - - - - - - 28.9 1009.6 0.0
04/09:00pm WNW 7 10 - - - - - - - 29.1 1009.4 0.0
04/08:30pm NW 7 10 - - - - - - - 29.1 1009.2 0.0
04/08:00pm N 4 6 - - - - - - - 29.3 1009.6 0.0
04/07:30pm NNW 2 5 - - - - - - - 29.4 1009.8 0.0
04/07:00pm NW 5 7 - - - - - - - 29.3 1008.6 0.0
04/06:30pm NW 7 10 - - - - - - - 29.9 1008.0 0.0
04/06:00pm NW 10 13 - - - - - - - 30.3 1007.4 0.0
04/05:30pm NW 10 15 - - - - - - - 30.9 1007.4 0.0
04/05:00pm NW 11 15 - - - - - - - 31.4 1007.2 0.0
04/04:30pm WNW 12 16 - - - - - - - 31.9 1006.8 0.0
04/04:00pm NW 13 18 - - - - - - - 32.9 1006.7 0.0
04/03:30pm NW 14 19 - - - - - - - 33.1 1006.5 0.0
04/03:00pm NW 14 18 - - - - - - - 34.3 1006.6 0.0
04/02:30pm NW 13 18 - - - - - - - 34.8 1006.9 0.0
04/02:00pm NNW 11 15 - - - - - - - 35.0 1007.0 0.0
04/01:30pm NNW 10 15 - - - - - - - 35.4 1007.3 0.0
04/01:00pm NNW 11 16 - - - - - - - 33.8 1007.8 0.0
04/12:30pm NNW 9 13 - - - - - - - 34.8 1007.9 0.0
04/12:00pm NNW 11 16 - - - - - - - 34.6 1008.1 0.0
04/11:30am NNW 10 14 - - - - - - - 35.9 1008.4 0.0
04/11:00am N 4 8 - - - - - - - 35.6 1008.6 0.0
04/10:30am NW 7 10 - - - - - - - 36.0 1008.9 0.0
04/10:00am NW 5 9 - - - - - - - 34.4 1009.1 0.0
04/09:30am NNE 3 7 - - - - - - - 33.5 1009.5 0.0
04/09:00am NNE 5 9 - - - - - - - 32.5 1009.7 0.4
04/08:30am NE 6 8 - - - - - - - 31.5 1009.7 0.4
04/08:00am ENE 6 8 - - - - - - - 30.8 1009.7 0.4
04/07:30am E 6 8 - - - - - - - 30.3 1009.8 0.4
04/07:00am ENE 5 7 - - - - - - - 29.3 1009.8 0.4
04/06:30am ENE 5 7 - - - - - - - 28.1 1009.7 0.4
04/06:00am ENE 5 5 - - - - - - - 27.3 1009.6 0.4
04/05:30am NE 5 6 - - - - - - - 27.1 1009.3 0.4
04/05:00am NE 5 7 - - - - - - - 27.1 1009.2 0.4
04/04:30am NE 7 8 - - - - - - - 27.2 1009.1 0.4
04/04:00am NNE 6 8 - - - - - - - 27.4 1009.3 0.4
04/03:30am ENE 6 9 - - - - - - - 28.1 1009.5 0.4
04/03:00am ENE 8 10 - - - - - - - 28.1 1009.7 0.4
04/02:30am ENE 9 11 - - - - - - - 28.3 1009.4 0.4
04/02:00am E 9 10 - - - - - - - 28.4 1009.6 0.4
04/01:30am ENE 5 7 - - - - - - - 27.8 1010.0 0.4
04/01:00am CALM 0 0 - - - - - - - 27.4 1010.2 0.4
04/12:30am CALM 0 0 - - - - - - - 26.9 1010.6 0.4
04/12:00am NE 1 3 - - - - - - - 27.3 1010.9 0.0
 
Date/Time
WST
Wind Sea
Height
m
Swell Vis
km
Cloud Weather Temp
°C
Press
MSL
hPa
Rain since
9am
mm
Dir  Spd
kts
Gust
kts
Height
m
Period
s
Dir
03/11:30pm N 3 6 - - - - - - - 28.9 1011.2 0.0
03/11:00pm ENE 3 3 - - - - - - - 30.5 1011.6 0.0
03/10:30pm ENE 6 8 - - - - - - - 30.1 1011.3 0.0
03/10:00pm NNW 2 4 - - - - - - - 29.8 1010.4 0.0
03/09:30pm WNW 5 7 - - - - - - - 30.4 1009.8 0.0
03/09:00pm W 4 6 - - - - - - - 30.4 1010.0 0.0
03/08:30pm WNW 2 3 - - - - - - - 30.4 1009.4 0.0
03/08:00pm WNW 5 7 - - - - - - - 30.3 1008.6 0.0
03/07:30pm W 8 10 - - - - - - - 30.6 1008.3 0.0
03/07:00pm W 9 11 - - - - - - - 31.0 1007.7 0.0
03/06:30pm WNW 9 13 - - - - - - - 32.0 1007.0 0.0
03/06:00pm WNW 9 11 - - - - - - - 33.5 1006.7 0.0
03/05:30pm NW 10 15 - - - - - - - 35.1 1006.0 0.0
03/05:00pm NNW 8 12 - - - - - - - 35.1 1006.2 0.0
03/04:30pm NNW 10 15 - - - - - - - 35.2 1005.8 0.0
03/04:00pm NNW 11 17 - - - - - - - 35.3 1005.3 0.0
03/03:30pm NNW 12 17 - - - - - - - 35.6 1005.4 0.0
03/03:00pm NNW 13 18 - - - - - - - 36.1 1005.8 0.0
03/02:30pm NNW 12 17 - - - - - - - 37.2 1006.1 0.0
03/02:00pm N 11 18 - - - - - - - 38.1 1006.2 0.0
03/01:30pm N 13 18 - - - - - - - 38.4 1006.4 0.0
03/01:00pm N 11 16 - - - - - - - 38.6 1006.7 0.0
03/12:30pm NNW 11 18 - - - - - - - 38.6 1006.8 0.0
03/12:00pm N 10 17 - - - - - - - 38.9 1007.1 0.0
03/11:30am N 9 12 - - - - - - - 39.0 1007.7 0.0
03/11:00am E 4 13 - - - - - - - 39.2 1008.0 0.0
03/10:30am E 6 12 - - - - - - - 38.5 1008.5 0.0
03/10:00am NE 5 9 - - - - - - - 38.0 1008.7 0.0
03/09:30am NE 8 13 - - - - - - - 36.5 1008.9 0.0
03/09:00am ENE 8 12 - - - - - - - 36.0 1009.0 0.0
03/08:30am ENE 10 13 - - - - - - - 35.6 1008.9 0.0
03/08:00am E 6 11 - - - - - - - 34.5 1008.8 0.0
03/07:30am SE 6 9 - - - - - - - 33.7 1008.8 0.0
03/07:00am S 5 8 - - - - - - - 31.3 1008.5 0.0
03/06:30am CALM 0 2 - - - - - - - 28.6 1008.5 0.0
03/06:00am SSW 3 5 - - - - - - - 27.7 1008.1 0.0
03/05:30am SE 4 6 - - - - - - - 27.3 1007.9 0.0
03/05:00am ESE 1 4 - - - - - - - 27.0 1007.9 0.0
03/04:30am ESE 3 4 - - - - - - - 27.1 1007.8 0.0
03/04:00am NW 3 4 - - - - - - - 26.9 1007.4 0.0
03/03:30am NW 4 4 - - - - - - - 26.9 1007.3 0.0
03/03:00am CALM 0 0 - - - - - - - 26.9 1007.3 0.0
03/02:30am CALM 0 0 - - - - - - - 27.0 1007.0 0.0
03/02:00am CALM 0 0 - - - - - - - 27.0 1007.2 0.0
03/01:30am CALM 0 0 - - - - - - - 26.9 1007.7 0.0
03/01:00am NW 4 5 - - - - - - - 27.2 1008.1 0.0
03/12:30am NW 3 4 - - - - - - - 27.3 1008.6 0.0
03/12:00am NW 3 4 - - - - - - - 27.2 1009.0 0.0
 
Date/Time
WST
Wind Sea
Height
m
Swell Vis
km
Cloud Weather Temp
°C
Press
MSL
hPa
Rain since
9am
mm
Dir  Spd
kts
Gust
kts
Height
m
Period
s
Dir
02/11:30pm NW 2 3 - - - - - - - 28.1 1009.2 0.0
02/11:00pm CALM 0 0 - - - - - - - 28.1 1009.7 0.0
02/10:30pm NW 1 3 - - - - - - - 28.0 1009.8 0.0
02/10:00pm NW 3 7 - - - - - - - 28.5 1009.9 0.0
02/09:30pm S 1 2 - - - - - - - 29.5 1010.0 0.0
02/09:00pm SE 5 7 - - - - - - - 29.4 1010.0 0.0
02/08:30pm CALM 0 1 - - - - - - - 28.6 1009.5 0.0
02/08:00pm NNW 2 3 - - - - - - - 28.8 1008.8 0.0
02/07:30pm NNW 3 6 - - - - - - - 29.1 1008.4 0.0
02/07:00pm NNW 6 10 - - - - - - - 30.0 1007.7 0.0
02/06:30pm N 10 16 - - - - - - - 31.3 1006.8 0.0
02/06:00pm N 13 18 - - - - - - - 32.3 1006.2 0.0
02/05:30pm N 13 20 - - - - - - - 33.3 1006.1 0.0
02/05:00pm N 15 19 - - - - - - - 33.8 1006.0 0.0
02/04:30pm N 14 19 - - - - - - - 35.5 1005.9 0.0
02/04:00pm N 14 19 - - - - - - - 36.3 1006.0 0.0
02/03:30pm N 16 21 - - - - - - - 37.0 1006.1 0.0
02/03:00pm NNE 17 23 - - - - - - - 37.5 1006.1 0.0
02/02:30pm NNE 17 24 - - - - - - - 37.8 1006.3 0.0
02/02:00pm NNE 18 27 - - - - - - - 38.3 1006.4 0.0
02/01:30pm NNE 19 23 - - - - - - - 39.9 1006.6 0.0
02/01:00pm NNE 19 25 - - - - - - - 39.5 1006.5 0.0
02/12:30pm NNE 16 23 - - - - - - - 38.8 1006.8 0.0
02/12:00pm N 12 19 - - - - - - - 37.1 1007.5 0.0
02/11:30am NNE 11 17 - - - - - - - 37.8 1007.7 0.0

Other formats

Comma delimited format used in spreadsheet applications
http://www.bom.gov.au/fwo/IDW60701/IDW60701.94306.axf

JavaScript Object Notation format (JSON) in row-major order
http://www.bom.gov.au/fwo/IDW60701/IDW60701.94306.json

Data quality

Most of these data are generated automatically and are frequently updated. Quality checks on data are not normally performed. It is possible for incorrect values to appear. Refer to information at About Latest Weather Observations and please check the disclaimer before using these data.